sensor_id;sensor_type;location;lat;lon;timestamp;temperature;humidity
33994;DHT22;20673;48.980;8.138;2024-01-30T00:00:16;0.40;99.90
33994;DHT22;20673;48.980;8.138;2024-01-30T00:02:42;0.40;99.90
33994;DHT22;20673;48.980;8.138;2024-01-30T00:05:08;0.40;99.90
33994;DHT22;20673;48.980;8.138;2024-01-30T00:07:34;0.50;99.90
33994;DHT22;20673;48.980;8.138;2024-01-30T00:10:00;0.30;99.90
33994;DHT22;20673;48.980;8.138;2024-01-30T00:12:27;0.30;99.90
33994;DHT22;20673;48.980;8.138;2024-01-30T00:14:53;0.30;99.90
33994;DHT22;20673;48.980;8.138;2024-01-30T00:17:19;0.30;99.90
33994;DHT22;20673;48.980;8.138;2024-01-30T00:19:46;0.40;99.90
33994;DHT22;20673;48.980;8.138;2024-01-30T00:22:12;0.50;99.90
33994;DHT22;20673;48.980;8.138;2024-01-30T00:24:38;0.50;99.90
33994;DHT22;20673;48.980;8.138;2024-01-30T00:27:04;0.30;99.90
33994;DHT22;20673;48.980;8.138;2024-01-30T00:29:30;0.30;99.90
33994;DHT22;20673;48.980;8.138;2024-01-30T00:31:58;0.20;99.90
33994;DHT22;20673;48.980;8.138;2024-01-30T00:34:24;0.20;99.90
33994;DHT22;20673;48.980;8.138;2024-01-30T00:36:50;0.20;99.90
33994;DHT22;20673;48.980;8.138;2024-01-30T00:39:17;0.20;99.90
33994;DHT22;20673;48.980;8.138;2024-01-30T00:41:45;0.10;99.90
33994;DHT22;20673;48.980;8.138;2024-01-30T00:44:11;0.20;99.90
33994;DHT22;20673;48.980;8.138;2024-01-30T00:46:37;0.10;99.90
33994;DHT22;20673;48.980;8.138;2024-01-30T00:49:03;0.10;99.90
33994;DHT22;20673;48.980;8.138;2024-01-30T00:51:29;0.10;99.90
33994;DHT22;20673;48.980;8.138;2024-01-30T00:53:55;0.00;99.90
33994;DHT22;20673;48.980;8.138;2024-01-30T00:56:21;0.00;99.90
33994;DHT22;20673;48.980;8.138;2024-01-30T00:58:47;0.10;99.90
33994;DHT22;20673;48.980;8.138;2024-01-30T01:01:13;0.00;99.90
33994;DHT22;20673;48.980;8.138;2024-01-30T01:03:40;0.10;99.90
33994;DHT22;20673;48.980;8.138;2024-01-30T01:06:08;0.00;99.90
33994;DHT22;20673;48.980;8.138;2024-01-30T01:08:34;0.00;99.90
33994;DHT22;20673;48.980;8.138;2024-01-30T01:11:00;0.00;99.90
33994;DHT22;20673;48.980;8.138;2024-01-30T01:13:26;0.00;99.90
33994;DHT22;20673;48.980;8.138;2024-01-30T01:15:52;0.10;99.90
33994;DHT22;20673;48.980;8.138;2024-01-30T01:18:18;0.10;99.90
33994;DHT22;20673;48.980;8.138;2024-01-30T01:20:44;0.10;99.90
33994;DHT22;20673;48.980;8.138;2024-01-30T01:23:10;0.10;99.90
33994;DHT22;20673;48.980;8.138;2024-01-30T01:25:36;0.00;99.90
33994;DHT22;20673;48.980;8.138;2024-01-30T01:28:02;0.00;99.90
33994;DHT22;20673;48.980;8.138;2024-01-30T01:30:29;0.00;99.90
33994;DHT22;20673;48.980;8.138;2024-01-30T01:32:56;0.00;99.90
33994;DHT22;20673;48.980;8.138;2024-01-30T01:35:23;0.00;99.90
33994;DHT22;20673;48.980;8.138;2024-01-30T01:37:51;0.00;99.90
33994;DHT22;20673;48.980;8.138;2024-01-30T01:40:19;0.00;99.90
33994;DHT22;20673;48.980;8.138;2024-01-30T01:42:45;-0.10;99.90
33994;DHT22;20673;48.980;8.138;2024-01-30T01:45:11;-0.10;99.90
33994;DHT22;20673;48.980;8.138;2024-01-30T01:47:37;-0.10;99.90
33994;DHT22;20673;48.980;8.138;2024-01-30T01:50:04;-0.10;99.90
33994;DHT22;20673;48.980;8.138;2024-01-30T01:52:31;-0.10;99.90
33994;DHT22;20673;48.980;8.138;2024-01-30T01:54:57;-0.10;99.90
33994;DHT22;20673;48.980;8.138;2024-01-30T01:57:24;-0.10;99.90
33994;DHT22;20673;48.980;8.138;2024-01-30T01:59:50;0.00;99.90
33994;DHT22;20673;48.980;8.138;2024-01-30T02:02:17;0.10;99.90
33994;DHT22;20673;48.980;8.138;2024-01-30T02:04:45;0.00;99.90
33994;DHT22;20673;48.980;8.138;2024-01-30T02:07:12;0.00;99.90
33994;DHT22;20673;48.980;8.138;2024-01-30T02:09:38;-0.10;99.90
33994;DHT22;20673;48.980;8.138;2024-01-30T02:12:04;-0.10;99.90
33994;DHT22;20673;48.980;8.138;2024-01-30T02:14:30;-0.10;99.90
33994;DHT22;20673;48.980;8.138;2024-01-30T02:16:57;-0.10;99.90
33994;DHT22;20673;48.980;8.138;2024-01-30T02:19:23;-0.10;99.90
33994;DHT22;20673;48.980;8.138;2024-01-30T02:21:49;-0.20;99.90
33994;DHT22;20673;48.980;8.138;2024-01-30T02:24:16;-0.20;99.90
33994;DHT22;20673;48.980;8.138;2024-01-30T02:26:42;-0.20;99.90
33994;DHT22;20673;48.980;8.138;2024-01-30T02:29:08;-0.20;99.90
33994;DHT22;20673;48.980;8.138;2024-01-30T02:31:34;-0.20;99.90
33994;DHT22;20673;48.980;8.138;2024-01-30T02:34:00;-0.20;99.90
33994;DHT22;20673;48.980;8.138;2024-01-30T02:36:26;-0.20;99.90
33994;DHT22;20673;48.980;8.138;2024-01-30T02:38:52;-0.20;99.90
33994;DHT22;20673;48.980;8.138;2024-01-30T02:41:18;-0.20;99.90
33994;DHT22;20673;48.980;8.138;2024-01-30T02:43:44;-0.20;99.90
33994;DHT22;20673;48.980;8.138;2024-01-30T02:46:10;-0.10;99.90
33994;DHT22;20673;48.980;8.138;2024-01-30T02:48:36;-0.20;99.90
33994;DHT22;20673;48.980;8.138;2024-01-30T02:51:04;-0.20;99.90
33994;DHT22;20673;48.980;8.138;2024-01-30T02:53:31;-0.20;99.90
33994;DHT22;20673;48.980;8.138;2024-01-30T02:55:57;-0.20;99.90
33994;DHT22;20673;48.980;8.138;2024-01-30T02:58:23;-0.20;99.90
33994;DHT22;20673;48.980;8.138;2024-01-30T03:00:49;-0.20;99.90
33994;DHT22;20673;48.980;8.138;2024-01-30T03:03:15;-0.20;99.90
33994;DHT22;20673;48.980;8.138;2024-01-30T03:05:41;-0.20;99.90
33994;DHT22;20673;48.980;8.138;2024-01-30T03:08:07;-0.20;99.90
33994;DHT22;20673;48.980;8.138;2024-01-30T03:10:33;-0.20;99.90
33994;DHT22;20673;48.980;8.138;2024-01-30T03:12:59;-0.20;99.90
33994;DHT22;20673;48.980;8.138;2024-01-30T03:15:25;-0.30;99.90
33994;DHT22;20673;48.980;8.138;2024-01-30T03:17:53;-0.30;99.90
33994;DHT22;20673;48.980;8.138;2024-01-30T03:20:19;-0.20;99.90
33994;DHT22;20673;48.980;8.138;2024-01-30T03:22:45;-0.20;99.90
33994;DHT22;20673;48.980;8.138;2024-01-30T03:25:11;-0.20;99.90
33994;DHT22;20673;48.980;8.138;2024-01-30T03:27:38;-0.20;99.90
33994;DHT22;20673;48.980;8.138;2024-01-30T03:30:05;-0.20;99.90
33994;DHT22;20673;48.980;8.138;2024-01-30T03:32:32;-0.20;99.90
33994;DHT22;20673;48.980;8.138;2024-01-30T03:34:58;-0.20;99.90
33994;DHT22;20673;48.980;8.138;2024-01-30T03:37:24;-0.20;99.90
33994;DHT22;20673;48.980;8.138;2024-01-30T03:39:50;-0.20;99.90
33994;DHT22;20673;48.980;8.138;2024-01-30T03:42:16;-0.20;99.90
33994;DHT22;20673;48.980;8.138;2024-01-30T03:44:42;-0.20;99.90
33994;DHT22;20673;48.980;8.138;2024-01-30T03:47:08;-0.20;99.90
33994;DHT22;20673;48.980;8.138;2024-01-30T03:49:34;-0.20;99.90
33994;DHT22;20673;48.980;8.138;2024-01-30T03:52:01;-0.20;99.90
33994;DHT22;20673;48.980;8.138;2024-01-30T03:54:27;-0.20;99.90
33994;DHT22;20673;48.980;8.138;2024-01-30T03:56:53;-0.20;99.90
33994;DHT22;20673;48.980;8.138;2024-01-30T03:59:19;-0.20;99.90
33994;DHT22;20673;48.980;8.138;2024-01-30T04:01:47;-0.30;99.90
33994;DHT22;20673;48.980;8.138;2024-01-30T04:04:13;-0.20;99.90
33994;DHT22;20673;48.980;8.138;2024-01-30T04:06:39;-0.20;99.90
33994;DHT22;20673;48.980;8.138;2024-01-30T04:09:05;-0.20;99.90
33994;DHT22;20673;48.980;8.138;2024-01-30T04:11:31;-0.10;99.90
33994;DHT22;20673;48.980;8.138;2024-01-30T04:13:57;-0.20;99.90
33994;DHT22;20673;48.980;8.138;2024-01-30T04:16:24;-0.10;99.90
33994;DHT22;20673;48.980;8.138;2024-01-30T04:18:51;-0.20;99.90
33994;DHT22;20673;48.980;8.138;2024-01-30T04:21:20;-0.10;99.90
33994;DHT22;20673;48.980;8.138;2024-01-30T04:23:48;-0.10;99.90
33994;DHT22;20673;48.980;8.138;2024-01-30T04:26:16;0.00;99.90
33994;DHT22;20673;48.980;8.138;2024-01-30T04:28:44;0.00;99.90
33994;DHT22;20673;48.980;8.138;2024-01-30T04:31:11;0.00;99.90
33994;DHT22;20673;48.980;8.138;2024-01-30T04:33:37;-0.10;99.90
33994;DHT22;20673;48.980;8.138;2024-01-30T04:36:04;-0.10;99.90
33994;DHT22;20673;48.980;8.138;2024-01-30T04:38:35;-0.10;99.90
33994;DHT22;20673;48.980;8.138;2024-01-30T04:41:01;0.00;99.90
33994;DHT22;20673;48.980;8.138;2024-01-30T04:43:27;0.00;99.90
33994;DHT22;20673;48.980;8.138;2024-01-30T04:45:53;0.00;99.90
33994;DHT22;20673;48.980;8.138;2024-01-30T04:48:19;-0.10;99.90
33994;DHT22;20673;48.980;8.138;2024-01-30T04:50:45;0.00;99.90
33994;DHT22;20673;48.980;8.138;2024-01-30T04:53:11;-0.10;99.90
33994;DHT22;20673;48.980;8.138;2024-01-30T04:55:37;0.00;99.90
33994;DHT22;20673;48.980;8.138;2024-01-30T04:58:03;0.00;99.90
33994;DHT22;20673;48.980;8.138;2024-01-30T05:00:29;0.00;99.90
33994;DHT22;20673;48.980;8.138;2024-01-30T05:02:56;-0.10;99.90
33994;DHT22;20673;48.980;8.138;2024-01-30T05:05:22;-0.10;99.90
33994;DHT22;20673;48.980;8.138;2024-01-30T05:07:48;0.00;99.90
33994;DHT22;20673;48.980;8.138;2024-01-30T05:10:14;0.00;99.90
33994;DHT22;20673;48.980;8.138;2024-01-30T05:12:40;0.00;99.90
33994;DHT22;20673;48.980;8.138;2024-01-30T05:15:07;-0.10;99.90
33994;DHT22;20673;48.980;8.138;2024-01-30T05:17:34;-0.10;99.90
33994;DHT22;20673;48.980;8.138;2024-01-30T05:20:00;-0.20;99.90
33994;DHT22;20673;48.980;8.138;2024-01-30T05:22:26;0.00;99.90
33994;DHT22;20673;48.980;8.138;2024-01-30T05:24:52;0.00;99.90
33994;DHT22;20673;48.980;8.138;2024-01-30T05:27:18;0.10;99.90
33994;DHT22;20673;48.980;8.138;2024-01-30T05:29:44;0.00;99.90
33994;DHT22;20673;48.980;8.138;2024-01-30T05:32:11;0.00;99.90
33994;DHT22;20673;48.980;8.138;2024-01-30T05:34:37;0.00;99.90
33994;DHT22;20673;48.980;8.138;2024-01-30T05:37:03;0.00;99.90
33994;DHT22;20673;48.980;8.138;2024-01-30T05:39:30;0.10;99.90
33994;DHT22;20673;48.980;8.138;2024-01-30T05:41:58;0.10;99.90
33994;DHT22;20673;48.980;8.138;2024-01-30T05:44:24;0.10;99.90
33994;DHT22;20673;48.980;8.138;2024-01-30T05:46:50;0.00;99.90
33994;DHT22;20673;48.980;8.138;2024-01-30T05:49:16;-0.10;99.90
33994;DHT22;20673;48.980;8.138;2024-01-30T05:51:42;-0.20;99.90
33994;DHT22;20673;48.980;8.138;2024-01-30T05:54:08;-0.20;99.90
33994;DHT22;20673;48.980;8.138;2024-01-30T05:56:34;-0.30;99.90
33994;DHT22;20673;48.980;8.138;2024-01-30T05:59:00;-0.30;99.90
33994;DHT22;20673;48.980;8.138;2024-01-30T06:01:26;-0.30;99.90
33994;DHT22;20673;48.980;8.138;2024-01-30T06:03:52;-0.40;99.90
33994;DHT22;20673;48.980;8.138;2024-01-30T06:06:18;-0.40;99.90
33994;DHT22;20673;48.980;8.138;2024-01-30T06:08:44;-0.30;99.90
33994;DHT22;20673;48.980;8.138;2024-01-30T06:11:11;-0.30;99.90
33994;DHT22;20673;48.980;8.138;2024-01-30T06:13:37;-0.20;99.90
33994;DHT22;20673;48.980;8.138;2024-01-30T06:16:04;-0.30;99.90
33994;DHT22;20673;48.980;8.138;2024-01-30T06:18:31;-0.20;99.90
33994;DHT22;20673;48.980;8.138;2024-01-30T06:20:57;-0.20;99.90
33994;DHT22;20673;48.980;8.138;2024-01-30T06:23:23;-0.20;99.90
33994;DHT22;20673;48.980;8.138;2024-01-30T06:25:49;-0.20;99.90
33994;DHT22;20673;48.980;8.138;2024-01-30T06:28:15;-0.10;99.90
33994;DHT22;20673;48.980;8.138;2024-01-30T06:30:41;-0.30;99.90
33994;DHT22;20673;48.980;8.138;2024-01-30T06:33:08;-0.30;99.90
33994;DHT22;20673;48.980;8.138;2024-01-30T06:35:34;-0.40;99.90
33994;DHT22;20673;48.980;8.138;2024-01-30T06:38:01;-0.40;99.90
33994;DHT22;20673;48.980;8.138;2024-01-30T06:40:27;-0.40;99.90
33994;DHT22;20673;48.980;8.138;2024-01-30T06:42:53;-0.40;99.90
33994;DHT22;20673;48.980;8.138;2024-01-30T06:45:19;-0.40;99.90
33994;DHT22;20673;48.980;8.138;2024-01-30T06:47:45;-0.40;99.90
33994;DHT22;20673;48.980;8.138;2024-01-30T06:50:12;-0.40;99.90
33994;DHT22;20673;48.980;8.138;2024-01-30T06:52:38;-0.40;99.90
33994;DHT22;20673;48.980;8.138;2024-01-30T06:55:04;-0.30;99.90
33994;DHT22;20673;48.980;8.138;2024-01-30T06:57:31;-0.30;99.90
33994;DHT22;20673;48.980;8.138;2024-01-30T06:59:57;-0.40;99.90
33994;DHT22;20673;48.980;8.138;2024-01-30T07:02:23;-0.40;99.90
33994;DHT22;20673;48.980;8.138;2024-01-30T07:04:49;-0.40;99.90
33994;DHT22;20673;48.980;8.138;2024-01-30T07:07:16;-0.50;99.90
33994;DHT22;20673;48.980;8.138;2024-01-30T07:09:42;-0.40;99.90
33994;DHT22;20673;48.980;8.138;2024-01-30T07:12:08;-0.40;99.90
33994;DHT22;20673;48.980;8.138;2024-01-30T07:14:34;-0.40;99.90
33994;DHT22;20673;48.980;8.138;2024-01-30T07:17:02;-0.50;99.90
33994;DHT22;20673;48.980;8.138;2024-01-30T07:19:28;-0.50;99.90
33994;DHT22;20673;48.980;8.138;2024-01-30T07:21:54;-0.40;99.90
33994;DHT22;20673;48.980;8.138;2024-01-30T07:24:20;-0.40;99.90
33994;DHT22;20673;48.980;8.138;2024-01-30T07:26:46;-0.40;99.90
33994;DHT22;20673;48.980;8.138;2024-01-30T07:29:12;-0.30;99.90
33994;DHT22;20673;48.980;8.138;2024-01-30T07:31:38;-0.30;99.90
33994;DHT22;20673;48.980;8.138;2024-01-30T07:34:05;-0.30;99.90
33994;DHT22;20673;48.980;8.138;2024-01-30T07:36:31;-0.30;99.90
33994;DHT22;20673;48.980;8.138;2024-01-30T07:38:57;-0.20;99.90
33994;DHT22;20673;48.980;8.138;2024-01-30T07:41:23;-0.20;99.90
33994;DHT22;20673;48.980;8.138;2024-01-30T07:43:50;-0.10;99.90
33994;DHT22;20673;48.980;8.138;2024-01-30T07:46:17;-0.10;99.90
33994;DHT22;20673;48.980;8.138;2024-01-30T07:48:43;0.00;99.90
33994;DHT22;20673;48.980;8.138;2024-01-30T07:51:09;0.10;99.90
33994;DHT22;20673;48.980;8.138;2024-01-30T07:53:35;0.10;99.90
33994;DHT22;20673;48.980;8.138;2024-01-30T07:56:01;0.20;99.90
33994;DHT22;20673;48.980;8.138;2024-01-30T07:58:28;0.30;99.90
33994;DHT22;20673;48.980;8.138;2024-01-30T08:00:54;0.40;99.90
33994;DHT22;20673;48.980;8.138;2024-01-30T08:03:22;0.50;99.90
33994;DHT22;20673;48.980;8.138;2024-01-30T08:05:48;0.60;99.90
33994;DHT22;20673;48.980;8.138;2024-01-30T08:08:14;0.70;99.90
33994;DHT22;20673;48.980;8.138;2024-01-30T08:10:40;0.80;99.90
33994;DHT22;20673;48.980;8.138;2024-01-30T08:13:06;0.90;99.90
33994;DHT22;20673;48.980;8.138;2024-01-30T08:15:34;1.00;99.90
33994;DHT22;20673;48.980;8.138;2024-01-30T08:18:00;1.10;99.90
33994;DHT22;20673;48.980;8.138;2024-01-30T08:20:26;1.20;99.90
33994;DHT22;20673;48.980;8.138;2024-01-30T08:22:53;1.30;99.90
33994;DHT22;20673;48.980;8.138;2024-01-30T08:25:19;1.40;99.90
33994;DHT22;20673;48.980;8.138;2024-01-30T08:27:45;1.50;99.90
33994;DHT22;20673;48.980;8.138;2024-01-30T08:30:11;1.70;99.90
33994;DHT22;20673;48.980;8.138;2024-01-30T08:32:42;1.70;99.90
33994;DHT22;20673;48.980;8.138;2024-01-30T08:35:08;1.70;99.90
33994;DHT22;20673;48.980;8.138;2024-01-30T08:37:34;1.70;99.90
33994;DHT22;20673;48.980;8.138;2024-01-30T08:40:00;1.80;99.90
33994;DHT22;20673;48.980;8.138;2024-01-30T08:42:28;1.80;99.90
33994;DHT22;20673;48.980;8.138;2024-01-30T08:44:54;1.80;99.90
33994;DHT22;20673;48.980;8.138;2024-01-30T08:47:21;1.80;99.90
33994;DHT22;20673;48.980;8.138;2024-01-30T08:49:47;1.90;99.90
33994;DHT22;20673;48.980;8.138;2024-01-30T08:52:13;1.90;99.90
33994;DHT22;20673;48.980;8.138;2024-01-30T08:54:39;1.90;99.90
33994;DHT22;20673;48.980;8.138;2024-01-30T08:57:05;2.00;99.90
33994;DHT22;20673;48.980;8.138;2024-01-30T08:59:31;2.00;99.90
33994;DHT22;20673;48.980;8.138;2024-01-30T09:01:57;2.10;99.90
33994;DHT22;20673;48.980;8.138;2024-01-30T09:04:24;2.20;99.90
33994;DHT22;20673;48.980;8.138;2024-01-30T09:06:51;2.30;99.90
33994;DHT22;20673;48.980;8.138;2024-01-30T09:09:17;2.40;99.90
33994;DHT22;20673;48.980;8.138;2024-01-30T09:11:43;2.60;99.90
33994;DHT22;20673;48.980;8.138;2024-01-30T09:14:09;2.70;99.90
33994;DHT22;20673;48.980;8.138;2024-01-30T09:16:36;2.70;99.90
33994;DHT22;20673;48.980;8.138;2024-01-30T09:19:02;2.80;99.90
33994;DHT22;20673;48.980;8.138;2024-01-30T09:21:28;3.00;99.90
33994;DHT22;20673;48.980;8.138;2024-01-30T09:23:54;3.10;99.90
33994;DHT22;20673;48.980;8.138;2024-01-30T09:26:21;3.30;99.90
33994;DHT22;20673;48.980;8.138;2024-01-30T09:28:47;3.50;99.90
33994;DHT22;20673;48.980;8.138;2024-01-30T09:31:13;3.70;99.90
33994;DHT22;20673;48.980;8.138;2024-01-30T09:33:39;3.80;99.90
33994;DHT22;20673;48.980;8.138;2024-01-30T09:36:05;3.90;99.90
33994;DHT22;20673;48.980;8.138;2024-01-30T09:38:32;4.00;99.90
33994;DHT22;20673;48.980;8.138;2024-01-30T09:41:01;4.10;99.90
33994;DHT22;20673;48.980;8.138;2024-01-30T09:43:32;4.20;99.90
33994;DHT22;20673;48.980;8.138;2024-01-30T09:46:02;4.40;99.90
33994;DHT22;20673;48.980;8.138;2024-01-30T09:48:32;4.50;99.90
33994;DHT22;20673;48.980;8.138;2024-01-30T09:51:00;4.60;99.90
33994;DHT22;20673;48.980;8.138;2024-01-30T09:53:26;4.80;99.90
33994;DHT22;20673;48.980;8.138;2024-01-30T09:55:52;4.80;99.90
33994;DHT22;20673;48.980;8.138;2024-01-30T09:58:18;4.70;99.90
33994;DHT22;20673;48.980;8.138;2024-01-30T10:00:45;4.80;99.90
33994;DHT22;20673;48.980;8.138;2024-01-30T10:03:11;4.70;99.90
33994;DHT22;20673;48.980;8.138;2024-01-30T10:05:40;4.90;99.90
33994;DHT22;20673;48.980;8.138;2024-01-30T10:08:07;5.00;99.90
33994;DHT22;20673;48.980;8.138;2024-01-30T10:10:34;5.00;99.90
33994;DHT22;20673;48.980;8.138;2024-01-30T10:13:01;5.20;99.90
33994;DHT22;20673;48.980;8.138;2024-01-30T10:15:28;5.30;99.90
33994;DHT22;20673;48.980;8.138;2024-01-30T10:17:55;5.40;99.90
33994;DHT22;20673;48.980;8.138;2024-01-30T10:20:21;5.40;99.90
33994;DHT22;20673;48.980;8.138;2024-01-30T10:22:49;5.40;99.90
33994;DHT22;20673;48.980;8.138;2024-01-30T10:25:15;5.60;99.90
33994;DHT22;20673;48.980;8.138;2024-01-30T10:27:42;5.70;99.90
33994;DHT22;20673;48.980;8.138;2024-01-30T10:30:08;5.70;99.90
33994;DHT22;20673;48.980;8.138;2024-01-30T10:32:34;5.80;99.90
33994;DHT22;20673;48.980;8.138;2024-01-30T10:35:01;5.90;99.90
33994;DHT22;20673;48.980;8.138;2024-01-30T10:37:28;6.00;99.90
33994;DHT22;20673;48.980;8.138;2024-01-30T10:43:10;6.20;99.90
33994;DHT22;20673;48.980;8.138;2024-01-30T10:45:42;6.30;99.90
33994;DHT22;20673;48.980;8.138;2024-01-30T10:48:16;6.50;99.90
33994;DHT22;20673;48.980;8.138;2024-01-30T10:51:03;6.80;99.90
33994;DHT22;20673;48.980;8.138;2024-01-30T10:53:31;6.90;99.90
33994;DHT22;20673;48.980;8.138;2024-01-30T10:59:46;7.40;99.90
33994;DHT22;20673;48.980;8.138;2024-01-30T11:02:33;7.70;99.90
33994;DHT22;20673;48.980;8.138;2024-01-30T11:05:00;7.80;99.90
33994;DHT22;20673;48.980;8.138;2024-01-30T11:07:27;8.00;99.90
33994;DHT22;20673;48.980;8.138;2024-01-30T11:10:00;8.60;99.90
33994;DHT22;20673;48.980;8.138;2024-01-30T11:12:39;9.40;99.90
33994;DHT22;20673;48.980;8.138;2024-01-30T11:15:03;9.80;5.30
33994;DHT22;20673;48.980;8.138;2024-01-30T11:17:49;10.00;1.00
33994;DHT22;20673;48.980;8.138;2024-01-30T11:20:31;10.30;1.00
33994;DHT22;20673;48.980;8.138;2024-01-30T11:22:57;10.20;1.00
33994;DHT22;20673;48.980;8.138;2024-01-30T11:25:25;10.10;1.00
33994;DHT22;20673;48.980;8.138;2024-01-30T11:27:55;10.10;1.00
33994;DHT22;20673;48.980;8.138;2024-01-30T11:30:27;10.20;1.00
33994;DHT22;20673;48.980;8.138;2024-01-30T11:33:11;10.30;1.00
33994;DHT22;20673;48.980;8.138;2024-01-30T11:35:40;10.20;1.00
33994;DHT22;20673;48.980;8.138;2024-01-30T11:38:09;10.40;1.00
33994;DHT22;20673;48.980;8.138;2024-01-30T11:40:38;10.90;1.00
33994;DHT22;20673;48.980;8.138;2024-01-30T11:43:07;11.30;1.00
33994;DHT22;20673;48.980;8.138;2024-01-30T11:45:35;11.60;1.00
33994;DHT22;20673;48.980;8.138;2024-01-30T11:48:02;12.00;1.00
33994;DHT22;20673;48.980;8.138;2024-01-30T11:50:30;12.00;1.00
33994;DHT22;20673;48.980;8.138;2024-01-30T11:52:57;12.10;1.00
33994;DHT22;20673;48.980;8.138;2024-01-30T11:55:24;12.10;1.00
33994;DHT22;20673;48.980;8.138;2024-01-30T11:57:51;12.10;1.00
33994;DHT22;20673;48.980;8.138;2024-01-30T12:00:19;11.90;1.00
33994;DHT22;20673;48.980;8.138;2024-01-30T12:02:50;11.70;1.00
33994;DHT22;20673;48.980;8.138;2024-01-30T12:05:19;11.60;1.00
33994;DHT22;20673;48.980;8.138;2024-01-30T12:07:46;11.60;1.00
33994;DHT22;20673;48.980;8.138;2024-01-30T12:10:15;11.50;1.00
33994;DHT22;20673;48.980;8.138;2024-01-30T12:12:44;11.40;1.00
33994;DHT22;20673;48.980;8.138;2024-01-30T12:15:13;11.30;1.00
33994;DHT22;20673;48.980;8.138;2024-01-30T12:17:40;11.30;1.00
33994;DHT22;20673;48.980;8.138;2024-01-30T12:22:46;11.40;1.00
33994;DHT22;20673;48.980;8.138;2024-01-30T12:25:15;11.40;1.00
33994;DHT22;20673;48.980;8.138;2024-01-30T12:27:47;11.30;1.00
33994;DHT22;20673;48.980;8.138;2024-01-30T12:30:19;11.10;1.00
33994;DHT22;20673;48.980;8.138;2024-01-30T12:32:48;11.10;1.00
33994;DHT22;20673;48.980;8.138;2024-01-30T12:35:17;11.10;1.00
33994;DHT22;20673;48.980;8.138;2024-01-30T12:37:45;11.10;1.00
33994;DHT22;20673;48.980;8.138;2024-01-30T12:40:13;11.00;1.00
33994;DHT22;20673;48.980;8.138;2024-01-30T12:42:41;11.00;1.00
33994;DHT22;20673;48.980;8.138;2024-01-30T12:45:08;10.90;1.00
33994;DHT22;20673;48.980;8.138;2024-01-30T12:47:35;11.00;1.00
33994;DHT22;20673;48.980;8.138;2024-01-30T12:50:01;11.20;1.00
33994;DHT22;20673;48.980;8.138;2024-01-30T12:52:28;11.40;1.00
33994;DHT22;20673;48.980;8.138;2024-01-30T12:54:55;11.40;1.00
33994;DHT22;20673;48.980;8.138;2024-01-30T12:57:21;11.50;1.00
33994;DHT22;20673;48.980;8.138;2024-01-30T12:59:47;11.50;1.00
33994;DHT22;20673;48.980;8.138;2024-01-30T13:02:13;11.40;1.00
33994;DHT22;20673;48.980;8.138;2024-01-30T13:04:40;11.40;1.00
33994;DHT22;20673;48.980;8.138;2024-01-30T13:07:08;11.30;1.00
33994;DHT22;20673;48.980;8.138;2024-01-30T13:09:34;11.30;1.00
33994;DHT22;20673;48.980;8.138;2024-01-30T13:12:00;11.20;1.00
33994;DHT22;20673;48.980;8.138;2024-01-30T13:14:26;11.20;1.00
33994;DHT22;20673;48.980;8.138;2024-01-30T13:16:52;11.10;1.00
33994;DHT22;20673;48.980;8.138;2024-01-30T13:19:18;11.10;1.00
33994;DHT22;20673;48.980;8.138;2024-01-30T13:21:44;11.10;1.00
33994;DHT22;20673;48.980;8.138;2024-01-30T13:24:11;11.00;1.00
33994;DHT22;20673;48.980;8.138;2024-01-30T13:26:37;11.00;1.00
33994;DHT22;20673;48.980;8.138;2024-01-30T13:29:03;11.00;1.00
33994;DHT22;20673;48.980;8.138;2024-01-30T13:31:29;11.00;1.00
33994;DHT22;20673;48.980;8.138;2024-01-30T13:33:55;11.00;1.00
33994;DHT22;20673;48.980;8.138;2024-01-30T13:36:22;11.00;1.00
33994;DHT22;20673;48.980;8.138;2024-01-30T13:38:48;11.00;1.00
33994;DHT22;20673;48.980;8.138;2024-01-30T13:41:14;11.10;1.00
33994;DHT22;20673;48.980;8.138;2024-01-30T13:43:43;11.00;1.00
33994;DHT22;20673;48.980;8.138;2024-01-30T13:46:10;11.00;1.00
33994;DHT22;20673;48.980;8.138;2024-01-30T13:48:37;10.90;1.00
33994;DHT22;20673;48.980;8.138;2024-01-30T13:51:03;10.90;1.00
33994;DHT22;20673;48.980;8.138;2024-01-30T13:53:29;10.90;1.00
33994;DHT22;20673;48.980;8.138;2024-01-30T13:55:55;10.80;1.00
33994;DHT22;20673;48.980;8.138;2024-01-30T13:58:22;10.70;1.00
33994;DHT22;20673;48.980;8.138;2024-01-30T14:00:48;10.70;1.00
33994;DHT22;20673;48.980;8.138;2024-01-30T14:03:14;10.70;1.00
33994;DHT22;20673;48.980;8.138;2024-01-30T14:05:40;10.70;1.00
33994;DHT22;20673;48.980;8.138;2024-01-30T14:08:07;10.70;1.00
33994;DHT22;20673;48.980;8.138;2024-01-30T14:10:34;10.60;1.00
33994;DHT22;20673;48.980;8.138;2024-01-30T14:13:00;10.60;1.00
33994;DHT22;20673;48.980;8.138;2024-01-30T14:15:26;10.60;1.00
33994;DHT22;20673;48.980;8.138;2024-01-30T14:17:52;10.50;1.00
33994;DHT22;20673;48.980;8.138;2024-01-30T14:20:18;10.50;1.00
33994;DHT22;20673;48.980;8.138;2024-01-30T14:22:45;10.50;1.00
33994;DHT22;20673;48.980;8.138;2024-01-30T14:25:11;10.50;1.00
33994;DHT22;20673;48.980;8.138;2024-01-30T14:27:38;10.40;1.00
33994;DHT22;20673;48.980;8.138;2024-01-30T14:30:04;10.40;1.00
33994;DHT22;20673;48.980;8.138;2024-01-30T14:32:31;10.40;1.00
33994;DHT22;20673;48.980;8.138;2024-01-30T14:34:57;10.50;1.00
33994;DHT22;20673;48.980;8.138;2024-01-30T14:37:23;10.40;1.00
33994;DHT22;20673;48.980;8.138;2024-01-30T14:39:50;10.40;1.00
33994;DHT22;20673;48.980;8.138;2024-01-30T14:42:16;10.30;3.10
33994;DHT22;20673;48.980;8.138;2024-01-30T14:44:42;10.40;6.20
33994;DHT22;20673;48.980;8.138;2024-01-30T14:47:08;10.40;7.70
33994;DHT22;20673;48.980;8.138;2024-01-30T14:49:35;10.30;10.20
33994;DHT22;20673;48.980;8.138;2024-01-30T14:52:01;10.30;9.20
33994;DHT22;20673;48.980;8.138;2024-01-30T14:54:29;10.30;6.80
33994;DHT22;20673;48.980;8.138;2024-01-30T14:56:55;10.30;7.40
33994;DHT22;20673;48.980;8.138;2024-01-30T14:59:21;10.30;9.40
33994;DHT22;20673;48.980;8.138;2024-01-30T15:01:47;10.20;12.00
33994;DHT22;20673;48.980;8.138;2024-01-30T15:04:14;10.20;16.50
33994;DHT22;20673;48.980;8.138;2024-01-30T15:06:40;10.10;20.60
33994;DHT22;20673;48.980;8.138;2024-01-30T15:09:08;10.10;24.20
33994;DHT22;20673;48.980;8.138;2024-01-30T15:11:35;10.10;29.40
33994;DHT22;20673;48.980;8.138;2024-01-30T15:14:02;10.00;36.30
33994;DHT22;20673;48.980;8.138;2024-01-30T15:16:28;10.00;44.20
33994;DHT22;20673;48.980;8.138;2024-01-30T15:18:54;9.90;50.60
33994;DHT22;20673;48.980;8.138;2024-01-30T15:21:20;9.80;56.00
33994;DHT22;20673;48.980;8.138;2024-01-30T15:23:48;9.90;54.00
33994;DHT22;20673;48.980;8.138;2024-01-30T15:26:14;9.70;58.10
33994;DHT22;20673;48.980;8.138;2024-01-30T15:28:41;9.70;62.00
33994;DHT22;20673;48.980;8.138;2024-01-30T15:31:07;9.70;72.60
33994;DHT22;20673;48.980;8.138;2024-01-30T15:33:33;9.70;73.50
33994;DHT22;20673;48.980;8.138;2024-01-30T15:36:00;9.70;75.90
33994;DHT22;20673;48.980;8.138;2024-01-30T15:38:27;9.60;82.50
33994;DHT22;20673;48.980;8.138;2024-01-30T15:40:55;9.60;87.00
33994;DHT22;20673;48.980;8.138;2024-01-30T15:43:22;9.60;76.20
33994;DHT22;20673;48.980;8.138;2024-01-30T15:45:49;9.50;75.60